Terminal Aerodrome Forecast
Issued by NWS

Home | Current Version | Previous Version | Text Only | Print | Product List | Glossary On
Versions: 1 2 3 4 5 6 7 8 9 10 11 12 13 14 15 16 17 18 19
000
FTUS46 KLOX 212300
TAFOXR
TAF
KOXR 212336Z 2200/2224 VRB03KT P6SM OVC250
     FM220600 VRB03KT 6SM HZ BKN250
     FM220900 04008KT P6SM SCT250
     FM221500 04013KT P6SM SCT250
     FM221800 06005KT P6SM FEW250
     FM222100 30010KT P6SM SKC=

USA.gov is the U.S. government's official web portal to all federal, state and local government web resources and services.